createdAt,value
2014-06-08T00:00:15.531Z,63.03
2014-06-08T00:01:20.221Z,63.68
2014-06-08T00:02:24.910Z,64.2
2014-06-08T00:03:29.600Z,63.84
2014-06-08T00:04:34.289Z,63.61
2014-06-08T00:05:38.979Z,63.74
2014-06-08T00:06:43.668Z,64.01
2014-06-08T00:07:48.358Z,64.45
2014-06-08T00:08:53.049Z,63.75
2014-06-08T00:09:57.738Z,63.44
2014-06-08T00:11:02.021Z,63.38
2014-06-08T00:12:06.711Z,63.23
2014-06-08T00:13:11.401Z,63.21
2014-06-08T00:14:16.090Z,62.87
2014-06-08T00:15:20.779Z,63.61
2014-06-08T00:16:25.766Z,62.87
2014-06-08T00:17:30.456Z,62.38
2014-06-08T00:18:35.144Z,61.98
2014-06-08T00:19:39.834Z,62.82
2014-06-08T00:20:44.523Z,62.84
2014-06-08T00:21:49.213Z,62.62
2014-06-08T00:22:53.902Z,61.78
2014-06-08T00:23:58.594Z,61.92
2014-06-08T00:25:03.282Z,60.97
2014-06-08T00:26:08.269Z,61.23
2014-06-08T00:27:12.943Z,62.21
2014-06-08T00:28:17.930Z,62.19
2014-06-08T00:29:22.618Z,63.82
2014-06-08T00:30:27.308Z,64.01
2014-06-08T00:31:31.997Z,63.61
2014-06-08T00:32:36.687Z,63.82
2014-06-08T00:33:41.376Z,63.71
2014-06-08T00:34:46.065Z,63.97
2014-06-08T00:35:50.754Z,64.08
2014-06-08T00:36:55.444Z,64.14
2014-06-08T00:38:00.433Z,64.14
2014-06-08T00:39:05.123Z,64.6
2014-06-08T00:40:09.812Z,65.22
2014-06-08T00:41:14.501Z,65.53
2014-06-08T00:42:19.190Z,65.2
2014-06-08T00:43:23.880Z,65.39
2014-06-08T00:44:28.569Z,65.78
2014-06-08T00:45:33.259Z,65.28
2014-06-08T00:46:38.245Z,64.92
2014-06-08T00:47:42.935Z,64.86
2014-06-08T00:48:47.920Z,64.65
2014-06-08T00:49:52.609Z,65.06
2014-06-08T00:50:57.299Z,65.11
2014-06-08T00:52:02.287Z,64.49
2014-06-08T00:53:06.977Z,64.38
2014-06-08T00:54:11.666Z,64.51
2014-06-08T00:55:16.356Z,64.65
2014-06-08T00:56:21.046Z,64.74
2014-06-08T00:57:25.735Z,65.21
2014-06-08T00:58:30.424Z,66.24
2014-06-08T00:59:35.411Z,65.95
2014-06-08T01:00:40.100Z,65.46
2014-06-08T01:01:44.790Z,65.1
2014-06-08T01:02:49.479Z,64.7
2014-06-08T01:03:54.169Z,64.45
2014-06-08T01:04:58.857Z,64.23
2014-06-08T01:06:03.549Z,64.69
2014-06-08T01:07:08.536Z,64.8
2014-06-08T01:08:13.226Z,65.38
2014-06-08T01:09:17.914Z,65.29
2014-06-08T01:10:22.604Z,65.15
2014-06-08T01:11:27.293Z,64.82
2014-06-08T01:12:31.983Z,65.93
2014-06-08T01:13:36.671Z,65.7
2014-06-08T01:14:41.658Z,66.12
2014-06-08T01:15:46.348Z,66.59
2014-06-08T01:16:51.037Z,66.42
2014-06-08T01:17:55.726Z,66.26
2014-06-08T01:19:00.415Z,65.95
2014-06-08T01:20:05.107Z,66.17
2014-06-08T01:21:09.796Z,65.77
2014-06-08T01:22:14.783Z,66.23
2014-06-08T01:23:19.769Z,66.16
2014-06-08T01:24:24.459Z,65.77
2014-06-08T01:25:29.148Z,65.77
2014-06-08T01:26:33.822Z,65.76
2014-06-08T01:27:38.512Z,65.09
2014-06-08T01:28:43.201Z,65.56
2014-06-08T01:29:47.890Z,65.74
2014-06-08T01:30:52.876Z,65.46
2014-06-08T01:31:57.565Z,66.04
2014-06-08T01:33:02.255Z,66.18
2014-06-08T01:34:06.946Z,66.61
2014-06-08T01:35:11.637Z,65.48
2014-06-08T01:36:16.326Z,65.53
2014-06-08T01:37:21.015Z,65.44
2014-06-08T01:38:25.704Z,65.48
2014-06-08T01:39:30.378Z,65.55
2014-06-08T01:40:35.068Z,65.69
2014-06-08T01:41:40.054Z,65.23
2014-06-08T01:42:44.744Z,66.04
2014-06-08T01:43:49.432Z,65.6
2014-06-08T01:44:54.420Z,66.17
2014-06-08T01:45:59.108Z,66.3
2014-06-08T01:47:03.798Z,65.81
2014-06-08T01:48:08.487Z,66.57
2014-06-08T01:49:13.179Z,67.18
2014-06-08T01:50:17.853Z,67.05
2014-06-08T01:51:22.542Z,65.9
2014-06-08T01:52:27.231Z,66.2
2014-06-08T01:53:32.218Z,66.15
2014-06-08T01:54:36.907Z,65.86
2014-06-08T01:55:41.894Z,65.77
2014-06-08T01:56:46.583Z,65.91
2014-06-08T01:57:51.554Z,66.05
2014-06-08T01:58:56.243Z,65.91
2014-06-08T02:00:00.933Z,65.92
2014-06-08T02:01:05.622Z,66.15
2014-06-08T02:02:10.312Z,66.47
2014-06-08T02:03:15.002Z,65.66
2014-06-08T02:04:19.692Z,64.62
2014-06-08T02:05:24.381Z,65
2014-06-08T02:06:29.055Z,65.07
2014-06-08T02:07:33.745Z,64.55
2014-06-08T02:08:38.434Z,64.27
2014-06-08T02:09:43.124Z,65.11
2014-06-08T02:10:48.110Z,65.65
2014-06-08T02:11:52.783Z,66.35
2014-06-08T02:12:57.474Z,65.97
2014-06-08T02:14:02.163Z,64.78
2014-06-08T02:15:07.148Z,64.03
2014-06-08T02:16:12.135Z,63.96
2014-06-08T02:17:16.826Z,65.63
2014-06-08T02:18:21.516Z,65.64
2014-06-08T02:19:26.205Z,65.04
2014-06-08T02:20:30.895Z,64.39
2014-06-08T02:21:35.584Z,65.38
2014-06-08T02:22:40.274Z,64.95
2014-06-08T02:23:44.963Z,65.47
2014-06-08T02:24:49.637Z,65.94
2014-06-08T02:25:54.327Z,65.48
2014-06-08T02:26:59.312Z,66.48
2014-06-08T02:28:04.003Z,66.45
2014-06-08T02:29:08.691Z,65.94
2014-06-08T02:30:13.663Z,65.63
2014-06-08T02:31:18.353Z,64.45
2014-06-08T02:32:23.043Z,64.17
2014-06-08T02:33:27.732Z,64.7
2014-06-08T02:34:32.422Z,65.41
2014-06-08T02:35:37.110Z,65.08
2014-06-08T02:36:41.800Z,65.05
2014-06-08T02:37:46.772Z,64.81
2014-06-08T02:38:51.461Z,65.14
2014-06-08T02:39:56.151Z,65.61
2014-06-08T02:41:01.137Z,66.23
2014-06-08T02:42:06.122Z,66.73
2014-06-08T02:43:10.812Z,65.54
2014-06-08T02:44:15.501Z,64.69
2014-06-08T02:45:20.474Z,65.22
2014-06-08T02:46:25.164Z,65.27
2014-06-08T02:47:29.853Z,64.88
2014-06-08T02:48:34.543Z,64.77
2014-06-08T02:49:39.231Z,65.73
2014-06-08T02:50:44.217Z,65.93
2014-06-08T02:51:48.908Z,65.99
2014-06-08T02:52:53.597Z,66.53
2014-06-08T02:53:58.287Z,66.79
2014-06-08T02:55:02.976Z,66.24
2014-06-08T02:56:07.650Z,66.39
2014-06-08T02:57:12.339Z,66.62
2014-06-08T02:58:17.325Z,66.09
2014-06-08T02:59:22.015Z,66.17
2014-06-08T03:00:26.706Z,66.84
2014-06-08T03:01:31.396Z,66.76
2014-06-08T03:02:36.085Z,67.09
2014-06-08T03:03:40.775Z,67.38
2014-06-08T03:04:45.745Z,67.38
2014-06-08T03:05:50.732Z,67.58
2014-06-08T03:06:55.421Z,67.81
2014-06-08T03:08:00.111Z,66.83
2014-06-08T03:09:04.800Z,65.73
2014-06-08T03:10:09.490Z,65.24
2014-06-08T03:11:14.163Z,65.42
2014-06-08T03:12:18.853Z,65.09
2014-06-08T03:13:23.543Z,65.71
2014-06-08T03:14:28.233Z,65.6
2014-06-08T03:15:32.922Z,65.13
2014-06-08T03:16:37.611Z,65.88
2014-06-08T03:17:42.301Z,65.33
2014-06-08T03:18:46.990Z,64.66
2014-06-08T03:19:51.680Z,65.73
2014-06-08T03:20:56.354Z,67.23
2014-06-08T03:22:01.043Z,67.23
2014-06-08T03:23:06.030Z,67.83
2014-06-08T03:24:11.016Z,67.05
2014-06-08T03:25:16.002Z,65.64
2014-06-08T03:26:20.692Z,65.32
2014-06-08T03:27:25.382Z,65.01
2014-06-08T03:28:30.056Z,66.11
2014-06-08T03:29:35.042Z,66.43
2014-06-08T03:30:39.732Z,66.99
2014-06-08T03:31:44.421Z,67.61
2014-06-08T03:32:49.408Z,67.8
2014-06-08T03:33:54.082Z,68.12
2014-06-08T03:34:58.771Z,67.8
2014-06-08T03:36:03.758Z,67.86
2014-06-08T03:37:08.447Z,67.66
2014-06-08T03:38:13.139Z,67.6
2014-06-08T03:39:17.812Z,66.96
2014-06-08T03:40:22.501Z,66.77
2014-06-08T03:41:27.190Z,66.71
2014-06-08T03:42:31.880Z,66.45
2014-06-08T03:43:36.569Z,66.51
2014-06-08T03:44:41.259Z,66.81
2014-06-08T03:45:45.948Z,66.43
2014-06-08T03:46:50.919Z,65.75
2014-06-08T03:47:55.609Z,65.51
2014-06-08T03:49:00.298Z,65.34
2014-06-08T03:50:04.988Z,65.24
2014-06-08T03:51:09.677Z,66.11
2014-06-08T03:52:14.368Z,66.54
2014-06-08T03:53:19.043Z,65.61
2014-06-08T03:54:23.731Z,65.53
2014-06-08T03:55:28.421Z,66.12
2014-06-08T03:56:33.110Z,65.94
2014-06-08T03:57:38.097Z,66.11
2014-06-08T03:58:42.786Z,66.54
2014-06-08T03:59:47.772Z,66.48
2014-06-08T04:00:52.445Z,66.85
2014-06-08T04:01:57.433Z,66.72
2014-06-08T04:03:02.122Z,65.42
2014-06-08T04:04:06.811Z,64.61
2014-06-08T04:05:11.501Z,64.62
2014-06-08T04:06:16.192Z,64.52
2014-06-08T04:07:20.882Z,64.44
2014-06-08T04:08:25.868Z,64.41
2014-06-08T04:09:30.541Z,64.06
2014-06-08T04:10:35.231Z,64.89
2014-06-08T04:11:39.920Z,65.9
2014-06-08T04:12:44.610Z,66.41
2014-06-08T04:13:49.299Z,66.66
2014-06-08T04:14:53.989Z,66.55
2014-06-08T04:15:58.678Z,67
2014-06-08T04:17:03.352Z,66.77
2014-06-08T04:18:08.042Z,66.86
2014-06-08T04:19:12.731Z,66.72
2014-06-08T04:20:17.422Z,66.78
2014-06-08T04:21:22.112Z,66.9
2014-06-08T04:22:26.785Z,67.41
2014-06-08T04:23:31.475Z,67.59
2014-06-08T04:24:36.164Z,67.5
2014-06-08T04:25:40.854Z,66.27
2014-06-08T04:26:45.840Z,66.89
2014-06-08T04:27:50.529Z,66.42
2014-06-08T04:28:55.204Z,66.32
2014-06-08T04:29:59.893Z,66.12
2014-06-08T04:31:04.582Z,65.98
2014-06-08T04:32:09.273Z,66.2
2014-06-08T04:33:13.961Z,66.23
2014-06-08T04:34:18.651Z,65.71
2014-06-08T04:35:23.325Z,65.08
2014-06-08T04:36:28.014Z,65.24
2014-06-08T04:37:32.704Z,65.76
2014-06-08T04:38:37.392Z,65.97
2014-06-08T04:39:42.084Z,65.13
2014-06-08T04:40:46.774Z,64.67
2014-06-08T04:41:51.448Z,64.29
2014-06-08T04:42:56.138Z,64.67
2014-06-08T04:44:00.826Z,64.99
2014-06-08T04:45:05.813Z,64.76
2014-06-08T04:46:10.502Z,64.69
2014-06-08T04:47:15.192Z,64.89
2014-06-08T04:48:20.179Z,64.81
2014-06-08T04:49:24.852Z,64.72
2014-06-08T04:50:29.541Z,64.02
2014-06-08T04:51:34.528Z,63.57
2014-06-08T04:52:39.201Z,63.87
2014-06-08T04:53:43.893Z,63.68
2014-06-08T04:54:48.581Z,63.75
2014-06-08T04:55:53.271Z,63.8
2014-06-08T04:56:58.258Z,63.5
2014-06-08T04:58:02.948Z,62.66
2014-06-08T04:59:07.637Z,62.37
2014-06-08T05:00:12.327Z,62.48
2014-06-08T05:01:17.016Z,62.56
2014-06-08T05:02:21.706Z,62.25
2014-06-08T05:03:26.395Z,61.83
2014-06-08T05:04:31.085Z,61.89
2014-06-08T05:05:35.774Z,61.61
2014-06-08T05:06:40.745Z,61.26
2014-06-08T05:07:45.435Z,61
2014-06-08T05:08:50.421Z,61.28
2014-06-08T05:09:55.109Z,60.79
2014-06-08T05:10:59.800Z,60.56
2014-06-08T05:12:04.489Z,60.83
2014-06-08T05:13:09.179Z,60.55
2014-06-08T05:14:14.165Z,60.23
2014-06-08T05:15:18.854Z,59.25
2014-06-08T05:16:22.856Z,59.39
2014-06-08T05:17:27.545Z,59.29
2014-06-08T05:18:32.235Z,58.43
2014-06-08T05:19:36.924Z,58.37
2014-06-08T05:20:41.615Z,58.58
2014-06-08T05:21:46.304Z,58.39
2014-06-08T05:22:51.277Z,59.91
2014-06-08T05:23:55.982Z,59.54
2014-06-08T05:25:00.656Z,59.96
2014-06-08T05:26:05.657Z,59.3
2014-06-08T05:27:10.643Z,58.88
2014-06-08T05:28:15.333Z,58.88
2014-06-08T05:29:20.022Z,58.85
2014-06-08T05:30:24.711Z,58.49
2014-06-08T05:31:29.400Z,57.48
2014-06-08T05:32:34.091Z,56.95
2014-06-08T05:33:38.780Z,56.85
2014-06-08T05:34:43.470Z,56.36
2014-06-08T05:35:48.159Z,56.54
2014-06-08T05:36:53.147Z,55.59
2014-06-08T05:37:58.133Z,55.57
2014-06-08T05:39:02.823Z,55.19
2014-06-08T05:40:07.512Z,54.81
2014-06-08T05:41:12.202Z,55.61
2014-06-08T05:42:16.891Z,56.01
2014-06-08T05:43:21.581Z,56.55
2014-06-08T05:44:26.863Z,56.3
2014-06-08T05:45:31.552Z,55.27
2014-06-08T05:46:36.242Z,55.09
2014-06-08T05:47:40.932Z,56.78
2014-06-08T05:48:45.622Z,56.21
2014-06-08T05:49:50.311Z,55.68
2014-06-08T05:50:55.299Z,55.11
2014-06-08T05:51:59.988Z,54.53
2014-06-08T05:53:04.678Z,54.43
2014-06-08T05:54:09.367Z,54.69
2014-06-08T05:55:14.057Z,53.58
2014-06-08T05:56:18.746Z,52.62
2014-06-08T05:57:23.436Z,52.74
2014-06-08T05:58:28.125Z,52.35
2014-06-08T05:59:32.814Z,52.96
2014-06-08T06:00:37.504Z,52.99
2014-06-08T06:01:42.193Z,52.47
2014-06-08T06:02:46.882Z,53.18
2014-06-08T06:03:51.572Z,53.75
2014-06-08T06:04:56.264Z,53.92
2014-06-08T06:06:00.954Z,52.11
2014-06-08T06:07:05.642Z,48.86
2014-06-08T06:08:10.332Z,46.16
2014-06-08T06:09:15.021Z,44.32
2014-06-08T06:10:20.023Z,42.8
2014-06-08T06:11:24.713Z,40.88
2014-06-08T06:12:29.402Z,39.51
2014-06-08T06:13:34.092Z,38.12
2014-06-08T06:14:38.780Z,36.97
2014-06-08T06:15:43.768Z,35.96
2014-06-08T06:16:48.457Z,36.08
2014-06-08T06:17:53.147Z,36.64
2014-06-08T06:18:57.851Z,36.5
2014-06-08T06:20:02.542Z,35.82
2014-06-08T06:21:07.247Z,34.97
2014-06-08T06:22:11.937Z,34.54
2014-06-08T06:23:16.626Z,33.82
2014-06-08T06:24:21.315Z,32.77
2014-06-08T06:25:26.021Z,32.98
2014-06-08T06:26:30.711Z,32.69
2014-06-08T06:27:35.399Z,32.43
2014-06-08T06:28:40.105Z,32.84
2014-06-08T06:29:44.809Z,32.72
2014-06-08T06:30:49.833Z,32.16
2014-06-08T06:31:54.579Z,32.58
2014-06-08T06:32:59.308Z,32.17
2014-06-08T06:34:04.096Z,32.9
2014-06-08T06:35:08.802Z,35.2
2014-06-08T06:36:13.522Z,38.24
2014-06-08T06:37:18.227Z,40.46
2014-06-08T06:38:23.242Z,42.3
2014-06-08T06:39:27.946Z,44.95
2014-06-08T06:40:32.642Z,44.2
2014-06-08T06:41:37.336Z,45.11
2014-06-08T06:42:42.045Z,46.05
2014-06-08T06:43:47.037Z,47.59
2014-06-08T06:44:51.748Z,48.25
2014-06-08T06:45:56.438Z,47.99
2014-06-08T06:47:01.428Z,49.12
2014-06-08T06:48:06.122Z,48.73
2014-06-08T06:49:10.814Z,47.5
2014-06-08T06:50:15.504Z,48.68
2014-06-08T06:51:20.210Z,48.24
2014-06-08T06:52:25.197Z,47.55
2014-06-08T06:53:29.887Z,47.94
2014-06-08T06:54:34.577Z,47.68
2014-06-08T06:55:39.283Z,47.17
2014-06-08T06:56:43.972Z,47.58
2014-06-08T06:57:48.663Z,47.71
2014-06-08T06:58:53.352Z,48.64
2014-06-08T06:59:58.042Z,48.23
2014-06-08T07:01:02.731Z,47.92
2014-06-08T07:02:07.423Z,48.53
2014-06-08T07:03:12.128Z,48.55
2014-06-08T07:04:17.114Z,49.98
2014-06-08T07:05:21.804Z,49.76
2014-06-08T07:06:26.492Z,49.11
2014-06-08T07:07:31.183Z,49.87
2014-06-08T07:08:35.872Z,49.74
2014-06-08T07:09:40.873Z,50.8
2014-06-08T07:10:45.564Z,51.5
2014-06-08T07:11:50.253Z,50.23
2014-06-08T07:12:54.942Z,51.03
2014-06-08T07:13:59.928Z,51.38
2014-06-08T07:15:04.618Z,50.65
2014-06-08T07:16:09.606Z,50.97
2014-06-08T07:17:14.295Z,50.72
2014-06-08T07:18:18.984Z,50.13
2014-06-08T07:19:23.673Z,51.31
2014-06-08T07:20:28.363Z,51.24
2014-06-08T07:21:33.365Z,52.03
2014-06-08T07:22:38.055Z,51.71
2014-06-08T07:23:42.744Z,52.18
2014-06-08T07:24:47.435Z,52.41
2014-06-08T07:25:52.124Z,52.01
2014-06-08T07:26:56.814Z,49.94
2014-06-08T07:28:01.504Z,49.07
2014-06-08T07:29:06.192Z,48.55
2014-06-08T07:30:11.195Z,48.83
2014-06-08T07:31:15.884Z,48.24
2014-06-08T07:32:20.573Z,47.88
2014-06-08T07:33:25.263Z,48.03
2014-06-08T07:34:29.952Z,47.38
2014-06-08T07:35:34.642Z,47.3
2014-06-08T07:36:39.331Z,48.2
2014-06-08T07:37:44.021Z,47.93
2014-06-08T07:38:49.320Z,46.38
2014-06-08T07:39:54.008Z,46.76
2014-06-08T07:40:58.700Z,46.74
2014-06-08T07:42:03.389Z,45.99
2014-06-08T07:43:08.080Z,46.72
2014-06-08T07:44:12.785Z,47.4
2014-06-08T07:45:17.770Z,47.85
2014-06-08T07:46:22.460Z,47.87
2014-06-08T07:47:27.462Z,45.28
2014-06-08T07:48:32.151Z,45.46
2014-06-08T07:49:36.840Z,46.09
2014-06-08T07:50:41.827Z,45.99
2014-06-08T07:51:46.532Z,43.46
2014-06-08T07:52:51.222Z,42.81
2014-06-08T07:53:55.911Z,42.3
2014-06-08T07:55:00.603Z,43.36
2014-06-08T07:56:05.308Z,41.78
2014-06-08T07:57:09.997Z,41.91
2014-06-08T07:58:14.686Z,41.69
2014-06-08T07:59:19.391Z,42.42
2014-06-08T08:00:24.081Z,42.63
2014-06-08T08:01:28.770Z,43.25
2014-06-08T08:02:32.772Z,43.61
2014-06-08T08:03:37.476Z,43.25
2014-06-08T08:04:42.166Z,43.33
2014-06-08T08:05:46.855Z,42.69
2014-06-08T08:06:51.546Z,42.93
2014-06-08T08:07:56.235Z,42.35
2014-06-08T08:09:00.941Z,41.81
2014-06-08T08:10:05.928Z,40.6
2014-06-08T08:11:10.617Z,40.47
2014-06-08T08:12:15.307Z,41.44
2014-06-08T08:13:20.013Z,41.31
2014-06-08T08:14:24.998Z,41
2014-06-08T08:15:29.688Z,41.51
2014-06-08T08:16:34.377Z,40.4
2014-06-08T08:17:39.067Z,40.89
2014-06-08T08:18:43.772Z,40.84
2014-06-08T08:19:48.460Z,40.94
2014-06-08T08:20:53.448Z,40.27
2014-06-08T08:21:58.136Z,40.37
2014-06-08T08:23:02.843Z,40.03
2014-06-08T08:24:07.533Z,39.96
2014-06-08T08:25:12.222Z,40.88
2014-06-08T08:26:16.912Z,40.12
2014-06-08T08:27:21.898Z,40.56
2014-06-08T08:28:26.603Z,41.45
2014-06-08T08:29:31.292Z,40.36
2014-06-08T08:30:35.981Z,40.09
2014-06-08T08:31:40.671Z,40
2014-06-08T08:32:45.360Z,41.11
2014-06-08T08:33:50.066Z,41.01
2014-06-08T08:34:55.053Z,40.84
2014-06-08T08:35:59.757Z,40.24
2014-06-08T08:37:04.746Z,40.14
2014-06-08T08:38:09.450Z,40.13
2014-06-08T08:39:14.141Z,38.56
2014-06-08T08:40:18.830Z,39.87
2014-06-08T08:41:23.816Z,40.06
2014-06-08T08:42:28.521Z,41.5
2014-06-08T08:43:33.210Z,40.99
2014-06-08T08:44:37.900Z,40.82
2014-06-08T08:45:42.902Z,38.63
2014-06-08T08:46:47.592Z,40.28
2014-06-08T08:47:52.281Z,40.16
2014-06-08T08:48:56.970Z,41.45
2014-06-08T08:50:01.660Z,41.57
2014-06-08T08:51:06.365Z,41.42
2014-06-08T08:52:11.055Z,40.55
2014-06-08T08:53:15.743Z,40.52
2014-06-08T08:54:20.448Z,39.15
2014-06-08T08:55:25.140Z,39.73
2014-06-08T08:56:29.830Z,39.7
2014-06-08T08:57:34.519Z,38.24
2014-06-08T08:58:39.224Z,38.56
2014-06-08T08:59:44.210Z,38.68
2014-06-08T09:00:48.900Z,39.5
2014-06-08T09:01:53.902Z,36.89
2014-06-08T09:02:58.591Z,38.57
2014-06-08T09:04:03.281Z,38.41
2014-06-08T09:05:08.283Z,37.45
2014-06-08T09:06:12.972Z,37.23
2014-06-08T09:07:17.661Z,38.15
2014-06-08T09:08:22.366Z,38.43
2014-06-08T09:09:27.058Z,38.15
2014-06-08T09:10:32.044Z,38.22
2014-06-08T09:11:36.750Z,37.25
2014-06-08T09:12:41.439Z,37.87
2014-06-08T09:13:46.128Z,38.41
2014-06-08T09:14:50.817Z,38.8
2014-06-08T09:15:55.819Z,38.33
2014-06-08T09:17:00.508Z,39.15
2014-06-08T09:18:05.197Z,37.99
2014-06-08T09:19:09.903Z,38.6
2014-06-08T09:20:14.593Z,37.63
2014-06-08T09:21:19.282Z,37.02
2014-06-08T09:22:23.972Z,36.28
2014-06-08T09:23:28.678Z,36.39
2014-06-08T09:24:33.368Z,36.39
2014-06-08T09:25:38.057Z,36.98
2014-06-08T09:26:42.763Z,36.05
2014-06-08T09:27:47.749Z,36.23
2014-06-08T09:28:52.438Z,36.54
2014-06-08T09:29:57.129Z,35.6
2014-06-08T09:31:01.834Z,36.63
2014-06-08T09:32:06.523Z,36.69
2014-06-08T09:33:11.212Z,36.74
2014-06-08T09:34:16.215Z,36.53
2014-06-08T09:35:20.904Z,36.75
2014-06-08T09:36:25.594Z,35.8
2014-06-08T09:37:30.299Z,36.57
2014-06-08T09:38:34.988Z,36.52
2014-06-08T09:39:39.678Z,35.43
2014-06-08T09:40:44.384Z,35.98
2014-06-08T09:41:49.072Z,35.81
2014-06-08T09:42:53.762Z,35.26
2014-06-08T09:43:58.467Z,35.84
2014-06-08T09:45:03.157Z,35.48
2014-06-08T09:46:08.143Z,35.99
2014-06-08T09:47:13.144Z,35.49
2014-06-08T09:48:17.834Z,36.4
2014-06-08T09:49:22.523Z,36.07
2014-06-08T09:50:27.228Z,35.23
2014-06-08T09:51:31.920Z,34.56
2014-06-08T09:52:35.922Z,34.69
2014-06-08T09:53:40.627Z,35
2014-06-08T09:54:45.316Z,34.46
2014-06-08T09:55:50.020Z,34.41
2014-06-08T09:56:54.710Z,35.51
2014-06-08T09:57:59.400Z,34.51
2014-06-08T09:59:04.105Z,34.99
2014-06-08T10:00:08.795Z,35.26
2014-06-08T10:01:13.484Z,33.75
2014-06-08T10:02:18.174Z,34.44
2014-06-08T10:03:22.863Z,33.07
2014-06-08T10:04:27.865Z,33.12
2014-06-08T10:05:32.554Z,34.62
2014-06-08T10:06:37.559Z,32.9
2014-06-08T10:07:42.263Z,33.9
2014-06-08T10:08:47.265Z,34.01
2014-06-08T10:09:51.970Z,32.91
2014-06-08T10:10:56.660Z,32.1
2014-06-08T10:12:01.349Z,34.15
2014-06-08T10:13:06.053Z,32.57
2014-06-08T10:14:10.744Z,31.38
2014-06-08T10:15:15.432Z,30.92
2014-06-08T10:16:20.434Z,31.08
2014-06-08T10:17:24.436Z,30.35
2014-06-08T10:18:29.142Z,29.97
2014-06-08T10:19:33.832Z,29.78
2014-06-08T10:20:38.522Z,31.4
2014-06-08T10:21:43.212Z,30.28
2014-06-08T10:22:47.916Z,28.96
2014-06-08T10:23:52.902Z,29.48
2014-06-08T10:24:57.593Z,30.2
2014-06-08T10:26:02.298Z,30.52
2014-06-08T10:27:06.988Z,29.32
2014-06-08T10:28:11.693Z,29.25
2014-06-08T10:29:16.382Z,28.08
2014-06-08T10:30:21.383Z,28.18
2014-06-08T10:31:26.073Z,28.96
2014-06-08T10:32:31.075Z,27.82
2014-06-08T10:33:35.764Z,28.52
2014-06-08T10:34:41.065Z,28.3
2014-06-08T10:35:45.755Z,28.73
2014-06-08T10:36:50.443Z,28.76
2014-06-08T10:37:55.149Z,30.08
2014-06-08T10:39:00.431Z,28.13
2014-06-08T10:40:05.433Z,28.36
2014-06-08T10:41:10.124Z,27.95
2014-06-08T10:42:14.812Z,29.66
2014-06-08T10:43:19.518Z,28.07
2014-06-08T10:44:24.504Z,28.26
2014-06-08T10:45:29.506Z,27.9
2014-06-08T10:46:34.509Z,29.63
2014-06-08T10:47:39.197Z,28.64
2014-06-08T10:48:43.905Z,29.37
2014-06-08T10:49:48.594Z,29.52
2014-06-08T10:50:53.893Z,29.27
2014-06-08T10:51:58.597Z,31.1
2014-06-08T10:53:03.288Z,29.95
2014-06-08T10:54:08.290Z,29.16
2014-06-08T10:55:13.276Z,30.12
2014-06-08T10:56:18.277Z,30.59
2014-06-08T10:57:23.263Z,27.74
2014-06-08T10:58:28.266Z,27.89
2014-06-08T10:59:32.956Z,28.8
2014-06-08T11:00:37.941Z,28.64
2014-06-08T11:01:42.646Z,27.6
2014-06-08T11:02:47.338Z,29.03
2014-06-08T11:03:52.043Z,28.83
2014-06-08T11:04:56.732Z,28.95
2014-06-08T11:06:01.438Z,28.98
2014-06-08T11:07:06.126Z,29.26
2014-06-08T11:08:10.816Z,29.2
2014-06-08T11:09:15.521Z,28.97
2014-06-08T11:10:20.226Z,28.76
2014-06-08T11:11:24.916Z,29.18
2014-06-08T11:12:29.621Z,28.86
2014-06-08T11:13:34.310Z,28.96
2014-06-08T11:14:38.999Z,26.72
2014-06-08T11:15:43.705Z,27.53
2014-06-08T11:16:48.693Z,27.37
2014-06-08T11:17:53.398Z,27.63
2014-06-08T11:18:58.088Z,28.2
2014-06-08T11:20:02.777Z,27.96
2014-06-08T11:21:07.482Z,27.23
2014-06-08T11:22:12.470Z,27.12
2014-06-08T11:23:17.174Z,27.24
2014-06-08T11:24:21.863Z,28.05
2014-06-08T11:25:26.865Z,26.79
2014-06-08T11:26:31.555Z,27.98
2014-06-08T11:27:36.261Z,28.34
2014-06-08T11:28:40.949Z,28.21
2014-06-08T11:29:45.639Z,28.28
2014-06-08T11:30:50.345Z,28.44
2014-06-08T11:31:55.628Z,29.04
2014-06-08T11:33:00.332Z,29.17
2014-06-08T11:34:05.022Z,29.09
2014-06-08T11:35:10.305Z,28.21
2014-06-08T11:36:15.010Z,28.73
2014-06-08T11:37:19.715Z,29.19
2014-06-08T11:38:24.405Z,28.34
2014-06-08T11:39:29.110Z,28.16
2014-06-08T11:40:34.096Z,27.97
2014-06-08T11:41:38.802Z,28.92
2014-06-08T11:42:43.492Z,28.66
2014-06-08T11:43:48.197Z,28.52
2014-06-08T11:44:53.183Z,28.97
2014-06-08T11:45:57.889Z,28.31
2014-06-08T11:47:02.579Z,27.69
2014-06-08T11:48:07.580Z,28.43
2014-06-08T11:49:12.271Z,27.63
2014-06-08T11:50:16.976Z,29.24
2014-06-08T11:51:21.664Z,28.97
2014-06-08T11:52:26.651Z,28.53
2014-06-08T11:53:31.653Z,27.71
2014-06-08T11:54:36.639Z,28
2014-06-08T11:55:41.328Z,28.08
2014-06-08T11:56:46.034Z,28.53
2014-06-08T11:57:50.725Z,27.47
2014-06-08T11:58:55.727Z,28.25
2014-06-08T12:00:00.417Z,28
2014-06-08T12:01:05.105Z,28.64
2014-06-08T12:02:10.108Z,29.62
2014-06-08T12:03:15.391Z,28.43
2014-06-08T12:04:20.393Z,28.32
2014-06-08T12:05:25.082Z,28.83
2014-06-08T12:06:29.771Z,29.26
2014-06-08T12:07:34.773Z,28.8
2014-06-08T12:08:39.463Z,29.57
2014-06-08T12:09:44.762Z,29.48
2014-06-08T12:10:49.451Z,28.9
2014-06-08T12:11:54.157Z,28.52
2014-06-08T12:12:58.848Z,29.38
2014-06-08T12:14:03.833Z,29.26
2014-06-08T12:15:08.835Z,29.69
2014-06-08T12:16:13.823Z,28.49
2014-06-08T12:17:18.527Z,29.22
2014-06-08T12:18:23.233Z,29.91
2014-06-08T12:19:27.922Z,29.35
2014-06-08T12:20:33.220Z,28.85
2014-06-08T12:21:37.910Z,29.69
2014-06-08T12:22:42.599Z,29.14
2014-06-08T12:23:47.304Z,29.83
2014-06-08T12:24:52.290Z,29.19
2014-06-08T12:25:56.982Z,29.34
2014-06-08T12:27:01.686Z,29.92
2014-06-08T12:28:06.376Z,29.56
2014-06-08T12:29:11.081Z,29.87
2014-06-08T12:30:16.067Z,29.99
2014-06-08T12:31:20.772Z,29.23
2014-06-08T12:32:25.759Z,29.89
2014-06-08T12:33:30.464Z,29.86
2014-06-08T12:34:35.153Z,29.21
2014-06-08T12:35:39.171Z,29.22
2014-06-08T12:36:43.876Z,29.84
2014-06-08T12:37:48.566Z,29.11
2014-06-08T12:38:53.255Z,28.9
2014-06-08T12:39:58.257Z,28.43
2014-06-08T12:41:02.949Z,28.83
2014-06-08T12:42:07.654Z,29.34
2014-06-08T12:43:12.343Z,28.46
2014-06-08T12:44:17.032Z,28.94
2014-06-08T12:45:21.737Z,28.87
2014-06-08T12:46:26.426Z,29.59
2014-06-08T12:47:31.428Z,29.66
2014-06-08T12:48:36.134Z,29.42
2014-06-08T12:49:40.823Z,30.3
2014-06-08T12:50:45.809Z,28.12
2014-06-08T12:51:50.515Z,29.53
2014-06-08T12:52:55.501Z,29.76
2014-06-08T12:54:00.206Z,29.12
2014-06-08T12:55:05.194Z,29.34
2014-06-08T12:56:09.900Z,29.02
2014-06-08T12:57:14.886Z,29.55
2014-06-08T12:58:19.591Z,28.75
2014-06-08T12:59:24.280Z,29.32
2014-06-08T13:00:28.969Z,29.99
2014-06-08T13:01:33.971Z,28.92
2014-06-08T13:02:38.661Z,29.3
2014-06-08T13:03:43.366Z,29.49
2014-06-08T13:04:48.071Z,30.32
2014-06-08T13:05:52.760Z,28.84
2014-06-08T13:06:57.450Z,29.1
2014-06-08T13:08:01.466Z,29.44
2014-06-08T13:09:06.158Z,29.45
2014-06-08T13:10:10.864Z,29.33
2014-06-08T13:11:15.554Z,29.21
2014-06-08T13:12:20.242Z,28.32
2014-06-08T13:13:24.947Z,28.01
2014-06-08T13:14:29.934Z,29.1
2014-06-08T13:15:34.639Z,28.25
2014-06-08T13:16:39.328Z,28.7
2014-06-08T13:17:44.018Z,29.37
2014-06-08T13:18:49.317Z,29.1
2014-06-08T13:19:54.005Z,28.58
2014-06-08T13:20:58.710Z,29.02
2014-06-08T13:22:03.401Z,29.05
2014-06-08T13:23:08.405Z,29.28
2014-06-08T13:24:13.094Z,28.7
2014-06-08T13:25:17.798Z,29.44
2014-06-08T13:26:22.488Z,29.86
2014-06-08T13:27:27.491Z,29.64
2014-06-08T13:28:32.179Z,28.85
2014-06-08T13:29:36.869Z,29.25
2014-06-08T13:30:41.574Z,28.89
2014-06-08T13:31:46.560Z,29.11
2014-06-08T13:32:51.264Z,29.29
2014-06-08T13:33:55.955Z,29.37
2014-06-08T13:35:00.957Z,29.44
2014-06-08T13:36:05.646Z,29.1
2014-06-08T13:37:09.665Z,28.7
2014-06-08T13:38:14.355Z,28.53
2014-06-08T13:39:19.044Z,28.55
2014-06-08T13:40:23.749Z,28.97
2014-06-08T13:41:28.439Z,28.84
2014-06-08T13:42:33.144Z,28.04
2014-06-08T13:43:38.130Z,28.33
2014-06-08T13:44:43.131Z,28.33
2014-06-08T13:45:48.119Z,28.47
2014-06-08T13:46:52.823Z,28.18
2014-06-08T13:47:57.512Z,28.04
2014-06-08T13:49:02.203Z,28.48
2014-06-08T13:50:06.908Z,27.82
2014-06-08T13:51:11.598Z,29.08
2014-06-08T13:52:16.303Z,28.58
2014-06-08T13:53:20.993Z,29.68
2014-06-08T13:54:25.698Z,28.36
2014-06-08T13:55:30.684Z,28.84
2014-06-08T13:56:35.390Z,29.76